Lees Cross Roads, Pennsylvania
Current Conditions -  °F | °C
As of 2:53 PM on Thursday 30 Oct 2014 (Local Time) from KHGR Reporting Station
Overcast Overcast  
Wind Chill: 54°   Ceiling: 5500
Heat Index: 54°   Visibility: 10mi
Dew Point: 36°   Wind: 9mph
Humidity: 51%   Direction: 290°WNW
Pressure: 30.04"   Gusts: NA
Location:  40.0414°N, 77.4967°W
Report Text: KHGR 301853Z 29008KT 10SM OVC055 12/02 A3004 RMK AO2 SLP183 T01220022
Loading
Personal Weather Stations






























Interactive Weather Map
Tropical Storm Tracking
New forecast layout! Learn more

10-Day Weather Forecast

Advertisements
Track Severe Weather on mobile